createdAt,value
2023-02-23T00:01:54.189Z,20.70
2023-02-23T00:04:21.253Z,22.17
2023-02-23T00:06:48.136Z,25.10
2023-02-23T00:09:28.058Z,20.02
2023-02-23T00:11:57.331Z,20.58
2023-02-23T00:14:28.959Z,19.25
2023-02-23T00:16:56.676Z,18.35
2023-02-23T00:19:24.973Z,19.08
2023-02-23T00:21:52.922Z,20.10
2023-02-23T00:24:20.674Z,16.02
2023-02-23T00:26:48.541Z,23.67
2023-02-23T00:29:25.708Z,20.25
2023-02-23T00:31:53.165Z,19.13
2023-02-23T00:34:21.363Z,20.33
2023-02-23T00:36:55.072Z,24.08
2023-02-23T00:39:26.592Z,18.25
2023-02-23T00:41:54.749Z,20.98
2023-02-23T00:44:23.566Z,18.38
2023-02-23T00:46:51.801Z,26.20
2023-02-23T00:49:20.875Z,21.23
2023-02-23T00:51:48.606Z,23.98
2023-02-23T00:54:16.542Z,24.60
2023-02-23T00:56:43.348Z,16.83
2023-02-23T00:59:10.927Z,27.92
2023-02-23T01:01:38.675Z,20.20
2023-02-23T01:04:06.251Z,19.65
2023-02-23T01:06:34.450Z,22.05
2023-02-23T01:09:05.380Z,25.13
2023-02-23T01:11:32.067Z,23.15
2023-02-23T01:14:00.251Z,19.33
2023-02-23T01:16:30.254Z,21.05
2023-02-23T01:19:04.443Z,25.58
2023-02-23T01:21:34.276Z,18.70
2023-02-23T01:24:02.349Z,22.52
2023-02-23T01:26:36.906Z,23.00
2023-02-23T01:29:09.015Z,19.88
2023-02-23T01:34:04.790Z,21.25
2023-02-23T01:36:35.787Z,29.08
2023-02-23T01:39:06.272Z,24.02
2023-02-23T01:41:35.245Z,25.27
2023-02-23T01:44:06.524Z,21.08
2023-02-23T01:46:36.274Z,23.70
2023-02-23T01:49:03.966Z,23.52
2023-02-23T01:51:33.624Z,29.90
2023-02-23T01:54:05.229Z,22.67
2023-02-23T01:56:36.640Z,21.27
2023-02-23T01:59:07.344Z,19.48
2023-02-23T02:01:34.194Z,23.05
2023-02-23T02:04:07.269Z,25.90
2023-02-23T02:06:36.549Z,23.30
2023-02-23T02:09:10.057Z,24.13
2023-02-23T02:11:39.108Z,27.58
2023-02-23T02:14:05.821Z,21.80
2023-02-23T02:17:05.259Z,23.17
2023-02-23T02:19:50.234Z,26.65
2023-02-23T02:22:36.641Z,29.27
2023-02-23T02:25:30.667Z,23.80
2023-02-23T02:28:10.664Z,24.50
2023-02-23T02:30:55.946Z,24.45
2023-02-23T02:33:34.886Z,24.40
2023-02-23T02:36:31.063Z,22.70
2023-02-23T02:39:34.950Z,23.67
2023-02-23T02:42:08.523Z,25.80
2023-02-23T02:44:59.914Z,28.30
2023-02-23T02:47:38.801Z,28.35
2023-02-23T02:50:17.721Z,25.35
2023-02-23T02:52:56.724Z,25.45
2023-02-23T02:55:34.057Z,21.23
2023-02-23T02:58:03.059Z,31.20
2023-02-23T03:00:55.573Z,25.60
2023-02-23T03:04:04.707Z,22.83
2023-02-23T03:06:49.926Z,28.42
2023-02-23T03:09:45.673Z,30.40
2023-02-23T03:12:43.190Z,26.10
2023-02-23T03:15:50.519Z,25.75
2023-02-23T03:18:55.267Z,26.25
2023-02-23T03:22:02.511Z,25.45
2023-02-23T03:24:57.403Z,27.67
2023-02-23T03:27:55.322Z,24.17
2023-02-23T03:30:54.922Z,24.52
2023-02-23T03:33:55.852Z,26.52
2023-02-23T03:36:45.873Z,28.70
2023-02-23T03:39:31.306Z,25.27
2023-02-23T03:42:19.209Z,21.75
2023-02-23T03:45:07.774Z,25.90
2023-02-23T03:47:57.447Z,30.02
2023-02-23T03:50:53.394Z,22.95
2023-02-23T03:53:46.765Z,26.27
2023-02-23T03:56:34.903Z,25.50
2023-02-23T03:59:22.129Z,25.83
2023-02-23T04:02:11.533Z,26.63
2023-02-23T04:04:58.752Z,25.33
2023-02-23T04:07:44.471Z,27.05
2023-02-23T04:10:30.375Z,24.02
2023-02-23T04:13:15.516Z,29.05
2023-02-23T04:15:55.408Z,24.73
2023-02-23T04:18:26.404Z,26.27
2023-02-23T04:20:54.629Z,26.17
2023-02-23T04:23:22.997Z,23.88
2023-02-23T04:25:51.352Z,22.50
2023-02-23T04:28:19.303Z,26.25
2023-02-23T04:30:46.533Z,24.02
2023-02-23T04:33:13.341Z,25.63
2023-02-23T04:35:40.471Z,24.50
2023-02-23T04:38:07.582Z,23.75
2023-02-23T04:40:34.657Z,26.13
2023-02-23T04:43:01.513Z,24.65
2023-02-23T04:45:28.329Z,25.02
2023-02-23T04:47:55.189Z,22.65
2023-02-23T04:50:22.236Z,24.25
2023-02-23T04:52:48.991Z,26.20
2023-02-23T04:55:21.769Z,24.88
2023-02-23T04:57:49.008Z,25.30
2023-02-23T05:00:16.878Z,25.90
2023-02-23T05:02:43.738Z,24.33
2023-02-23T05:05:10.897Z,25.90
2023-02-23T05:07:38.186Z,25.50
2023-02-23T05:10:06.549Z,26.77
2023-02-23T05:12:33.405Z,23.58
2023-02-23T05:15:00.129Z,24.65
2023-02-23T05:17:26.908Z,22.95
2023-02-23T05:19:53.710Z,24.98
2023-02-23T05:22:20.586Z,20.98
2023-02-23T05:24:47.736Z,23.33
2023-02-23T05:27:15.470Z,22.80
2023-02-23T05:29:42.230Z,23.40
2023-02-23T05:32:09.043Z,25.67
2023-02-23T05:34:36.770Z,24.50
2023-02-23T05:37:03.630Z,23.58
2023-02-23T05:39:30.569Z,25.50
2023-02-23T05:41:57.276Z,22.08
2023-02-23T05:44:25.090Z,27.92
2023-02-23T05:46:51.962Z,24.58
2023-02-23T05:49:18.713Z,24.73
2023-02-23T05:51:45.367Z,20.70
2023-02-23T05:54:14.037Z,22.67
2023-02-23T05:56:42.228Z,23.48
2023-02-23T05:59:08.964Z,25.88
2023-02-23T06:01:35.820Z,27.85
2023-02-23T06:04:04.507Z,29.13
2023-02-23T06:06:31.975Z,22.15
2023-02-23T06:08:58.770Z,25.02
2023-02-23T06:11:25.489Z,22.98
2023-02-23T06:13:52.370Z,25.20
2023-02-23T06:16:19.595Z,25.58
2023-02-23T06:18:46.532Z,22.15
2023-02-23T06:21:13.227Z,25.25
2023-02-23T06:23:39.866Z,28.65
2023-02-23T06:26:06.672Z,24.50
2023-02-23T06:28:33.373Z,23.65
2023-02-23T06:31:00.258Z,22.73
2023-02-23T06:33:27.293Z,25.48
2023-02-23T06:35:54.759Z,25.98
2023-02-23T06:38:22.097Z,23.38
2023-02-23T06:40:49.164Z,23.38
2023-02-23T06:43:17.137Z,24.60
2023-02-23T06:45:43.903Z,27.50
2023-02-23T06:48:10.728Z,28.77
2023-02-23T06:50:37.402Z,28.80
2023-02-23T06:53:05.035Z,23.00
2023-02-23T06:55:32.665Z,24.98
2023-02-23T06:57:59.495Z,23.42
2023-02-23T07:00:26.349Z,22.73
2023-02-23T07:02:53.095Z,21.58
2023-02-23T07:05:20.923Z,22.88
2023-02-23T07:07:47.759Z,26.85
2023-02-23T07:10:14.413Z,26.75
2023-02-23T07:12:41.098Z,24.38
2023-02-23T07:15:08.507Z,21.45
2023-02-23T07:17:35.204Z,25.40
2023-02-23T07:20:02.095Z,27.85
2023-02-23T07:22:30.395Z,23.42
2023-02-23T07:24:57.790Z,26.77
2023-02-23T07:27:24.910Z,21.95
2023-02-23T07:29:51.634Z,22.70
2023-02-23T07:32:18.500Z,25.35
2023-02-23T07:34:47.730Z,30.52
2023-02-23T07:37:14.757Z,27.00
2023-02-23T07:39:41.537Z,25.33
2023-02-23T07:42:08.251Z,28.55
2023-02-23T07:44:34.957Z,20.52
2023-02-23T07:47:01.734Z,22.75
2023-02-23T07:49:28.372Z,28.38
2023-02-23T07:51:55.075Z,26.92
2023-02-23T07:54:22.616Z,26.70
2023-02-23T07:56:49.304Z,25.88
2023-02-23T07:59:16.122Z,21.25
2023-02-23T08:01:42.974Z,25.90
2023-02-23T08:04:09.708Z,27.45
2023-02-23T08:06:36.857Z,27.35
2023-02-23T08:09:04.709Z,28.05
2023-02-23T08:11:31.553Z,27.38
2023-02-23T08:14:02.596Z,23.77
2023-02-23T08:16:31.804Z,26.90
2023-02-23T08:19:00.026Z,22.67
2023-02-23T08:21:29.249Z,21.65
2023-02-23T08:23:57.057Z,27.00
2023-02-23T08:26:25.296Z,23.98
2023-02-23T08:28:53.083Z,21.77
2023-02-23T08:31:24.141Z,24.05
2023-02-23T08:33:51.979Z,25.10
2023-02-23T08:36:20.715Z,26.55
2023-02-23T08:38:48.021Z,24.05
2023-02-23T08:41:15.264Z,24.25
2023-02-23T08:43:43.905Z,24.83
2023-02-23T08:46:11.511Z,22.35
2023-02-23T08:48:40.421Z,30.58
2023-02-23T08:51:08.294Z,29.10
2023-02-23T08:53:36.212Z,27.15
2023-02-23T08:56:06.142Z,30.80
2023-02-23T08:58:35.415Z,31.63
2023-02-23T09:01:02.709Z,33.22
2023-02-23T09:03:30.779Z,30.83
2023-02-23T09:06:08.767Z,36.95
2023-02-23T09:08:35.814Z,34.15
2023-02-23T09:11:02.641Z,35.88
2023-02-23T09:13:29.281Z,32.28
2023-02-23T09:15:56.135Z,37.28
2023-02-23T09:18:24.064Z,31.42
2023-02-23T09:20:51.561Z,36.80
2023-02-23T09:23:19.767Z,37.17
2023-02-23T09:25:46.525Z,39.65
2023-02-23T09:28:16.132Z,39.75
2023-02-23T09:30:44.344Z,37.92
2023-02-23T09:33:12.072Z,41.85
2023-02-23T09:35:39.344Z,40.72
2023-02-23T09:38:07.627Z,41.28
2023-02-23T09:40:47.409Z,43.60
2023-02-23T09:43:25.629Z,40.75
2023-02-23T09:48:24.767Z,46.13
2023-02-23T09:50:55.003Z,42.70
2023-02-23T09:53:34.156Z,38.90
2023-02-23T09:56:14.337Z,44.92
2023-02-23T09:58:41.339Z,42.42
2023-02-23T10:01:14.250Z,42.58
2023-02-23T10:03:54.536Z,41.40
2023-02-23T10:06:21.942Z,37.72
2023-02-23T10:09:06.840Z,37.88
2023-02-23T10:11:41.737Z,38.30
2023-02-23T10:14:26.908Z,38.45
2023-02-23T10:17:00.881Z,38.63
2023-02-23T10:19:44.738Z,37.67
2023-02-23T10:22:14.115Z,33.88
2023-02-23T10:24:45.554Z,40.38
2023-02-23T10:27:18.136Z,37.85
2023-02-23T10:29:55.643Z,40.78
2023-02-23T10:32:46.348Z,40.97
2023-02-23T10:35:20.366Z,39.47
2023-02-23T10:37:48.486Z,34.90
2023-02-23T10:40:22.782Z,37.03
2023-02-23T10:42:50.864Z,39.60
2023-02-23T10:45:23.159Z,38.35
2023-02-23T10:48:07.721Z,33.33
2023-02-23T10:53:21.676Z,39.25
2023-02-23T10:56:02.040Z,37.00
2023-02-23T10:58:29.410Z,39.17
2023-02-23T11:01:04.918Z,37.30
2023-02-23T11:03:46.912Z,36.05
2023-02-23T11:06:31.839Z,47.60
2023-02-23T11:08:59.138Z,35.65
2023-02-23T11:11:28.958Z,34.25
2023-02-23T11:13:57.275Z,38.97
2023-02-23T11:16:29.082Z,35.08
2023-02-23T11:18:55.863Z,38.30
2023-02-23T11:21:34.032Z,37.78
2023-02-23T11:24:19.306Z,40.50
2023-02-23T11:26:48.463Z,43.40
2023-02-23T11:29:25.617Z,37.92
2023-02-23T11:31:55.957Z,41.60
2023-02-23T11:34:35.388Z,37.85
2023-02-23T11:37:24.496Z,37.22
2023-02-23T11:39:55.553Z,35.35
2023-02-23T11:42:25.478Z,35.97
2023-02-23T11:45:04.469Z,37.83
2023-02-23T11:47:35.103Z,36.03
2023-02-23T11:50:03.723Z,29.00
2023-02-23T11:52:31.657Z,35.65
2023-02-23T11:55:12.747Z,37.83
2023-02-23T11:57:39.478Z,38.33
2023-02-23T12:00:12.977Z,37.53
2023-02-23T12:02:58.918Z,35.58
2023-02-23T12:05:29.173Z,35.83
2023-02-23T12:08:16.290Z,37.95
2023-02-23T12:10:46.291Z,35.80
2023-02-23T12:13:32.834Z,36.60
2023-02-23T12:16:02.458Z,35.35
2023-02-23T12:18:56.309Z,37.00
2023-02-23T12:21:46.876Z,39.88
2023-02-23T12:24:38.764Z,42.65
2023-02-23T12:27:16.272Z,45.63
2023-02-23T12:30:08.981Z,46.35
2023-02-23T12:32:45.910Z,45.83
2023-02-23T12:35:33.266Z,43.50
2023-02-23T12:38:19.826Z,49.85
2023-02-23T12:40:47.505Z,46.22
2023-02-23T12:43:29.281Z,45.70
2023-02-23T12:46:02.123Z,45.75
2023-02-23T12:48:37.593Z,51.17
2023-02-23T12:51:19.287Z,46.65
2023-02-23T12:53:46.077Z,47.50
2023-02-23T12:56:21.932Z,54.10
2023-02-23T12:59:18.089Z,60.90
2023-02-23T13:02:04.414Z,52.83
2023-02-23T13:04:46.588Z,56.88
2023-02-23T13:07:22.788Z,52.53
2023-02-23T13:10:03.498Z,47.85
2023-02-23T13:12:49.496Z,51.72
2023-02-23T13:15:26.918Z,48.60
2023-02-23T13:18:10.004Z,48.53
2023-02-23T13:20:50.623Z,46.40
2023-02-23T13:23:34.938Z,44.60
2023-02-23T13:28:48.038Z,37.45
2023-02-23T13:31:41.609Z,45.55
2023-02-23T13:34:21.361Z,37.55
2023-02-23T13:36:50.604Z,40.85
2023-02-23T13:39:36.057Z,43.80
2023-02-23T13:42:14.556Z,44.35
2023-02-23T13:45:03.563Z,42.05
2023-02-23T13:47:56.784Z,41.22
2023-02-23T13:50:42.672Z,42.15
2023-02-23T13:53:42.649Z,46.70
2023-02-23T13:56:30.031Z,40.88
2023-02-23T13:59:01.489Z,47.05
2023-02-23T14:01:32.805Z,44.97
2023-02-23T14:04:04.245Z,55.85
2023-02-23T14:06:34.219Z,55.28
2023-02-23T14:09:20.588Z,58.90
2023-02-23T14:12:16.820Z,59.95
2023-02-23T14:14:46.083Z,66.13
2023-02-23T14:17:15.867Z,65.63
2023-02-23T14:20:15.295Z,71.82
2023-02-23T14:23:21.680Z,88.63
2023-02-23T14:26:12.342Z,80.25
2023-02-23T14:31:12.841Z,93.43
2023-02-23T14:33:42.767Z,108.97
2023-02-23T14:36:21.713Z,123.10
2023-02-23T14:38:57.495Z,121.90
2023-02-23T14:41:27.173Z,124.38
2023-02-23T14:44:12.363Z,123.00
2023-02-23T14:47:00.045Z,118.82
2023-02-23T14:49:28.439Z,128.93
2023-02-23T14:51:56.844Z,118.72
2023-02-23T14:54:32.457Z,116.43
2023-02-23T14:57:01.648Z,116.57
2023-02-23T14:59:36.988Z,107.20
2023-02-23T15:02:12.356Z,110.03
2023-02-23T15:04:39.808Z,101.28
2023-02-23T15:07:10.811Z,91.22
2023-02-23T15:09:43.052Z,91.97
2023-02-23T15:12:39.222Z,84.40
2023-02-23T15:15:17.582Z,83.57
2023-02-23T15:17:47.828Z,85.50
2023-02-23T15:20:23.332Z,84.63
2023-02-23T15:22:55.152Z,85.85
2023-02-23T15:25:26.084Z,85.97
2023-02-23T15:27:53.878Z,86.75
2023-02-23T15:30:21.155Z,86.82
2023-02-23T15:32:48.538Z,80.18
2023-02-23T15:35:15.860Z,81.10
2023-02-23T15:37:47.326Z,76.60
2023-02-23T15:40:25.015Z,81.50
2023-02-23T15:42:57.819Z,79.63
2023-02-23T15:45:25.168Z,83.63
2023-02-23T15:47:57.675Z,84.28
2023-02-23T15:50:36.590Z,83.93
2023-02-23T15:53:13.738Z,81.53
2023-02-23T15:55:43.401Z,87.18
2023-02-23T15:58:22.634Z,85.82
2023-02-23T16:00:55.822Z,78.40
2023-02-23T16:03:57.047Z,77.10
2023-02-23T16:06:33.484Z,83.28
2023-02-23T16:09:26.437Z,79.25
2023-02-23T16:11:59.097Z,69.88
2023-02-23T16:14:32.371Z,67.47
2023-02-23T16:17:12.571Z,76.13
2023-02-23T16:19:41.750Z,65.53
2023-02-23T16:22:32.402Z,64.75
2023-02-23T16:25:07.952Z,56.90
2023-02-23T16:27:37.270Z,61.55
2023-02-23T16:30:23.337Z,60.53
2023-02-23T16:33:07.251Z,63.55
2023-02-23T16:35:49.933Z,59.40
2023-02-23T16:38:35.176Z,58.65
2023-02-23T16:41:12.155Z,57.38
2023-02-23T16:43:38.926Z,54.15
2023-02-23T16:46:05.705Z,51.03
2023-02-23T16:48:32.823Z,55.95
2023-02-23T16:50:59.618Z,52.80
2023-02-23T16:53:26.366Z,46.63
2023-02-23T16:55:55.481Z,53.65
2023-02-23T16:58:25.143Z,49.85
2023-02-23T17:00:53.807Z,47.53
2023-02-23T17:03:26.724Z,50.78
2023-02-23T17:05:54.079Z,55.88
2023-02-23T17:08:21.190Z,52.60
2023-02-23T17:10:51.110Z,49.72
2023-02-23T17:13:23.539Z,51.28
2023-02-23T17:15:53.761Z,48.90
2023-02-23T17:18:29.329Z,47.70
2023-02-23T17:20:58.160Z,50.05
2023-02-23T17:23:38.548Z,53.00
2023-02-23T17:26:07.223Z,46.03
2023-02-23T17:28:34.274Z,44.35
2023-02-23T17:31:03.091Z,44.90
2023-02-23T17:33:33.457Z,39.28
2023-02-23T17:36:10.390Z,41.03
2023-02-23T17:38:38.697Z,42.50
2023-02-23T17:41:10.335Z,37.65
2023-02-23T17:43:39.987Z,32.83
2023-02-23T17:46:07.221Z,35.10
2023-02-23T17:48:35.622Z,34.70
2023-02-23T17:51:06.275Z,30.75
2023-02-23T17:53:33.109Z,36.63
2023-02-23T17:56:00.826Z,31.48
2023-02-23T17:58:27.977Z,33.47
2023-02-23T18:01:00.516Z,36.17
2023-02-23T18:03:31.846Z,30.63
2023-02-23T18:06:00.652Z,30.30
2023-02-23T18:08:27.519Z,25.50
2023-02-23T18:10:56.315Z,25.42
2023-02-23T18:13:24.328Z,30.10
2023-02-23T18:15:58.491Z,30.42
2023-02-23T18:18:25.687Z,25.38
2023-02-23T18:20:55.857Z,25.75
2023-02-23T18:23:23.782Z,28.23
2023-02-23T18:25:50.603Z,24.08
2023-02-23T18:28:17.949Z,26.10
2023-02-23T18:30:45.179Z,24.38
2023-02-23T18:33:13.306Z,27.25
2023-02-23T18:35:42.703Z,22.70
2023-02-23T18:38:12.341Z,21.00
2023-02-23T18:40:39.791Z,20.70
2023-02-23T18:43:06.808Z,24.77
2023-02-23T18:45:34.526Z,25.00
2023-02-23T18:48:01.363Z,23.85
2023-02-23T18:50:28.810Z,25.38
2023-02-23T18:52:58.930Z,23.65
2023-02-23T18:55:25.724Z,22.15
2023-02-23T18:57:55.363Z,20.10
2023-02-23T19:00:22.804Z,23.73
2023-02-23T19:02:49.817Z,20.17
2023-02-23T19:05:19.521Z,17.35
2023-02-23T19:07:47.670Z,17.10
2023-02-23T19:10:15.278Z,21.95
2023-02-23T19:12:42.812Z,21.15
2023-02-23T19:15:10.548Z,18.60
2023-02-23T19:17:37.615Z,20.20
2023-02-23T19:20:14.270Z,17.83
2023-02-23T19:22:42.843Z,17.33
2023-02-23T19:25:11.842Z,18.00
2023-02-23T19:27:38.985Z,21.65
2023-02-23T19:30:10.146Z,17.48
2023-02-23T19:32:40.161Z,18.45
2023-02-23T19:35:10.342Z,18.73
2023-02-23T19:37:42.175Z,16.60
2023-02-23T19:40:09.837Z,15.60
2023-02-23T19:42:36.974Z,18.80
2023-02-23T19:45:04.659Z,21.45
2023-02-23T19:47:31.659Z,13.35
2023-02-23T19:49:58.734Z,20.95
2023-02-23T19:52:28.739Z,22.58
2023-02-23T19:54:56.029Z,15.82
2023-02-23T19:57:22.946Z,14.48
2023-02-23T19:59:49.750Z,15.98
2023-02-23T20:02:16.916Z,12.20
2023-02-23T20:04:43.687Z,17.92
2023-02-23T20:07:11.704Z,9.75
2023-02-23T20:09:38.770Z,16.20
2023-02-23T20:12:06.417Z,12.80
2023-02-23T20:14:33.307Z,14.35
2023-02-23T20:17:00.945Z,15.23
2023-02-23T20:19:27.827Z,11.65
2023-02-23T20:21:54.588Z,21.02
2023-02-23T20:24:21.425Z,13.68
2023-02-23T20:26:48.390Z,13.43
2023-02-23T20:29:17.984Z,16.48
2023-02-23T20:31:50.609Z,22.42
2023-02-23T20:34:22.116Z,15.45
2023-02-23T20:36:51.044Z,10.15
2023-02-23T20:39:19.130Z,15.63
2023-02-23T20:41:47.816Z,11.77
2023-02-23T20:44:16.020Z,15.48
2023-02-23T20:46:45.696Z,20.05
2023-02-23T20:49:13.319Z,12.65
2023-02-23T20:51:42.860Z,16.98
2023-02-23T20:54:11.111Z,14.00
2023-02-23T20:56:39.522Z,12.27
2023-02-23T20:59:11.117Z,13.95
2023-02-23T21:01:43.304Z,13.90
2023-02-23T21:04:12.708Z,12.27
2023-02-23T21:06:39.574Z,11.13
2023-02-23T21:09:12.399Z,8.35
2023-02-23T21:11:39.086Z,13.57
2023-02-23T21:14:06.170Z,11.38
2023-02-23T21:16:33.385Z,9.02
2023-02-23T21:19:06.188Z,12.95
2023-02-23T21:21:47.586Z,9.38
2023-02-23T21:24:16.167Z,12.40
2023-02-23T21:26:43.052Z,10.27
2023-02-23T21:29:14.939Z,7.35
2023-02-23T21:31:43.719Z,8.35
2023-02-23T21:34:11.031Z,10.05
2023-02-23T21:36:38.482Z,11.38
2023-02-23T21:39:06.617Z,9.45
2023-02-23T21:41:34.000Z,9.57
2023-02-23T21:44:03.569Z,10.93
2023-02-23T21:46:30.382Z,10.50
2023-02-23T21:48:57.109Z,9.40
2023-02-23T21:51:24.136Z,10.32
2023-02-23T21:53:50.896Z,12.90
2023-02-23T21:56:22.484Z,13.55
2023-02-23T21:58:54.855Z,8.93
2023-02-23T22:01:27.742Z,9.05
2023-02-23T22:03:55.167Z,9.45
2023-02-23T22:06:30.949Z,11.65
2023-02-23T22:08:57.646Z,11.50
2023-02-23T22:11:28.297Z,6.03
2023-02-23T22:14:00.570Z,7.93
2023-02-23T22:16:30.344Z,14.40
2023-02-23T22:18:58.342Z,8.88
2023-02-23T22:21:25.163Z,7.30
2023-02-23T22:23:53.484Z,5.53
2023-02-23T22:26:20.623Z,7.47
2023-02-23T22:28:47.501Z,10.43
2023-02-23T22:31:14.745Z,11.55
2023-02-23T22:33:43.723Z,9.02
2023-02-23T22:36:18.409Z,8.45
2023-02-23T22:38:46.579Z,10.43
2023-02-23T22:41:13.715Z,8.52
2023-02-23T22:43:43.339Z,12.82
2023-02-23T22:46:11.239Z,8.43
2023-02-23T22:48:38.167Z,10.57
2023-02-23T22:51:07.803Z,11.18
2023-02-23T22:53:34.643Z,10.65
2023-02-23T22:56:01.424Z,8.50
2023-02-23T22:58:28.213Z,11.40
2023-02-23T23:01:03.790Z,9.48
2023-02-23T23:03:36.545Z,10.80
2023-02-23T23:06:06.113Z,8.55
2023-02-23T23:08:38.706Z,12.40
2023-02-23T23:11:11.374Z,12.25
2023-02-23T23:13:44.767Z,9.15
2023-02-23T23:16:29.182Z,9.82
2023-02-23T23:19:04.820Z,11.85
2023-02-23T23:21:33.620Z,9.88
2023-02-23T23:24:05.769Z,12.57
2023-02-23T23:26:34.774Z,11.00
2023-02-23T23:29:06.427Z,10.82
2023-02-23T23:31:35.199Z,7.30
2023-02-23T23:34:09.621Z,11.40
2023-02-23T23:36:43.083Z,13.18
2023-02-23T23:39:16.346Z,8.25
2023-02-23T23:41:47.743Z,12.57
2023-02-23T23:44:16.702Z,7.70
2023-02-23T23:46:45.172Z,8.00
2023-02-23T23:49:18.349Z,9.93
2023-02-23T23:51:51.182Z,9.10
2023-02-23T23:54:24.302Z,7.13
2023-02-23T23:56:51.400Z,10.27
2023-02-23T23:59:21.357Z,6.47
